Time;durP1;ratioP1;P1;durP2;ratioP2;P2;SDS_P1;SDS_P2;PMS_P1;PMS_P2;Temp;Humidity;BMP_temperature;BMP_pressure;BME280_temperature;BME280_humidity;BME280_pressure;Samples;Min_cycle;Max_cycle;Signal;HPM_P1;HPM_P2
2023/09/13 00:00:38;;;;;;;10.73;2.22;;;18.40;99.90;;;;;;5053219;28;20051;-73
2023/09/13 00:03:04;;;;;;;10.77;2.20;;;18.30;99.90;;;;;;5053615;28;20030;-72
2023/09/13 00:05:30;;;;;;;14.38;2.17;;;18.30;99.90;;;;;;5052296;28;20498;-73
2023/09/13 00:07:55;;;;;;;10.30;2.30;;;18.30;99.90;;;;;;5053497;28;20527;-73
2023/09/13 00:10:21;;;;;;;11.82;2.13;;;18.30;99.90;;;;;;5051791;28;20118;-72
2023/09/13 00:12:47;;;;;;;11.65;2.13;;;18.30;99.90;;;;;;5052246;28;20044;-74
2023/09/13 00:15:13;;;;;;;9.65;2.67;;;18.30;99.90;;;;;;5053322;28;20049;-74
2023/09/13 00:17:38;;;;;;;16.85;2.00;;;18.30;99.90;;;;;;5052915;28;20135;-74
2023/09/13 00:20:07;;;;;;;11.05;2.22;;;18.30;99.90;;;;;;5053471;28;20056;-72
2023/09/13 00:22:33;;;;;;;11.10;2.17;;;18.30;99.90;;;;;;5051456;28;20041;-72
2023/09/13 00:24:58;;;;;;;11.95;1.95;;;18.20;99.90;;;;;;5053030;28;20045;-73
2023/09/13 00:27:24;;;;;;;9.80;2.38;;;18.20;99.90;;;;;;5053084;28;20045;-73
2023/09/13 00:29:49;;;;;;;9.02;2.15;;;18.20;99.90;;;;;;5053000;28;20400;-72
2023/09/13 00:32:15;;;;;;;9.27;1.98;;;18.20;99.90;;;;;;5052206;28;20079;-72
2023/09/13 00:34:41;;;;;;;11.75;2.15;;;18.10;99.90;;;;;;5051380;28;20056;-72
2023/09/13 00:37:06;;;;;;;8.75;2.35;;;18.10;99.90;;;;;;5052816;28;20111;-73
2023/09/13 00:39:32;;;;;;;11.02;2.05;;;18.10;99.90;;;;;;5052668;28;20114;-71
2023/09/13 00:41:58;;;;;;;11.60;1.60;;;18.10;99.90;;;;;;5066430;28;20047;-72
2023/09/13 00:44:24;;;;;;;10.25;1.77;;;18.00;99.90;;;;;;5052825;28;20124;-72
2023/09/13 00:46:49;;;;;;;9.90;1.80;;;18.00;99.90;;;;;;5052470;28;20052;-72
2023/09/13 00:49:15;;;;;;;6.60;1.40;;;18.00;99.90;;;;;;5051155;28;20148;-73
2023/09/13 00:51:41;;;;;;;10.48;2.10;;;18.00;99.90;;;;;;5052669;28;20503;-73
2023/09/13 00:54:09;;;;;;;6.60;1.60;;;18.00;99.90;;;;;;5052526;28;20043;-74
2023/09/13 00:56:35;;;;;;;13.15;1.85;;;18.00;99.90;;;;;;5052186;28;20138;-72
2023/09/13 00:59:02;;;;;;;8.50;1.60;;;17.90;99.90;;;;;;5051900;28;20055;-71
2023/09/13 01:01:28;;;;;;;10.32;1.60;;;17.90;99.90;;;;;;5067741;28;20041;-71
2023/09/13 01:03:56;;;;;;;9.30;1.70;;;17.90;99.90;;;;;;5051956;28;20492;-72
2023/09/13 01:06:22;;;;;;;11.25;1.52;;;17.90;99.90;;;;;;5052064;28;20052;-72
2023/09/13 01:08:47;;;;;;;9.18;1.80;;;17.80;99.90;;;;;;5051948;28;20091;-73
2023/09/13 01:11:13;;;;;;;7.10;1.90;;;17.80;99.90;;;;;;5051708;28;20057;-72
2023/09/13 01:13:39;;;;;;;8.98;1.90;;;17.80;99.90;;;;;;5051449;28;20037;-73
2023/09/13 01:16:18;;;;;;;11.23;1.73;;;17.70;99.90;;;;;;5052361;28;20112;-71
2023/09/13 01:19:03;;;;;;;10.55;1.67;;;17.70;99.90;;;;;;5044236;28;20060;-72
2023/09/13 01:21:51;;;;;;;10.23;2.15;;;17.70;99.90;;;;;;5061029;28;20070;-70
2023/09/13 01:24:39;;;;;;;6.43;1.63;;;17.60;99.90;;;;;;5051596;28;20498;-73
2023/09/13 01:27:30;;;;;;;6.43;1.85;;;17.60;99.90;;;;;;5046040;28;20149;-71
2023/09/13 01:29:59;;;;;;;13.45;1.98;;;17.50;99.90;;;;;;5046214;28;20048;-71
2023/09/13 01:32:24;;;;;;;7.30;1.50;;;17.50;99.90;;;;;;5051556;28;20396;-71
2023/09/13 01:34:50;;;;;;;6.75;1.50;;;17.50;99.90;;;;;;5067227;28;20049;-72
2023/09/13 01:37:16;;;;;;;10.02;1.30;;;17.50;99.90;;;;;;5051540;28;20051;-70
2023/09/13 01:39:41;;;;;;;8.98;1.67;;;17.40;99.90;;;;;;5051100;28;20037;-74
2023/09/13 01:42:10;;;;;;;7.97;1.70;;;17.40;99.90;;;;;;5066431;28;20403;-72
2023/09/13 01:44:40;;;;;;;11.90;1.73;;;17.40;99.90;;;;;;5046183;28;20048;-70
2023/09/13 01:47:08;;;;;;;12.40;1.92;;;17.40;99.90;;;;;;5043217;28;20049;-71
2023/09/13 01:49:35;;;;;;;14.88;1.85;;;17.40;99.90;;;;;;5051134;28;20044;-70
2023/09/13 01:52:04;;;;;;;6.65;1.60;;;17.30;99.90;;;;;;5050937;28;20041;-70
2023/09/13 01:54:33;;;;;;;11.55;1.83;;;17.30;99.90;;;;;;5051339;28;20143;-72
2023/09/13 01:56:59;;;;;;;9.35;1.60;;;17.30;99.90;;;;;;5051276;28;20041;-71
2023/09/13 01:59:25;;;;;;;11.07;1.90;;;17.30;99.90;;;;;;5050830;28;20373;-73
2023/09/13 02:01:50;;;;;;;8.20;1.40;;;17.20;99.90;;;;;;5050750;28;20071;-72
2023/09/13 02:04:16;;;;;;;8.25;1.35;;;17.20;99.90;;;;;;5050860;28;20049;-73
2023/09/13 02:06:42;;;;;;;16.20;1.90;;;17.20;99.90;;;;;;5050803;28;20044;-72
2023/09/13 02:09:07;;;;;;;8.38;1.77;;;17.20;99.90;;;;;;5066017;28;20072;-72
2023/09/13 02:11:33;;;;;;;8.02;1.50;;;17.20;99.90;;;;;;5049564;28;20424;-72
2023/09/13 02:13:58;;;;;;;9.82;1.80;;;17.10;99.90;;;;;;5050968;28;20037;-73
2023/09/13 02:16:24;;;;;;;10.48;1.80;;;17.10;99.90;;;;;;5050538;28;20047;-74
2023/09/13 02:18:50;;;;;;;9.57;2.28;;;17.10;99.90;;;;;;5050053;28;20384;-73
2023/09/13 02:21:16;;;;;;;12.60;2.08;;;17.00;99.90;;;;;;5051358;28;20043;-74
2023/09/13 02:23:43;;;;;;;10.50;1.52;;;17.10;99.90;;;;;;5050698;28;20447;-73
2023/09/13 02:26:19;;;;;;;8.07;1.85;;;17.10;99.90;;;;;;5049327;28;20053;-74
2023/09/13 02:28:45;;;;;;;6.80;1.50;;;17.10;99.90;;;;;;5050781;28;20052;-71
2023/09/13 02:31:10;;;;;;;5.55;1.40;;;17.10;99.90;;;;;;5050434;28;20045;-75
2023/09/13 02:33:36;;;;;;;6.32;1.33;;;17.10;99.90;;;;;;5050293;28;20076;-73
2023/09/13 02:36:02;;;;;;;7.03;1.60;;;17.10;99.90;;;;;;5050404;28;20033;-71
2023/09/13 02:38:27;;;;;;;6.78;1.50;;;17.10;99.90;;;;;;5050577;28;20048;-71
2023/09/13 02:40:53;;;;;;;9.07;1.60;;;17.00;99.90;;;;;;5050062;28;20124;-76
2023/09/13 02:43:19;;;;;;;8.82;2.03;;;17.00;99.90;;;;;;5050447;28;20060;-76
2023/09/13 02:45:44;;;;;;;8.00;1.60;;;17.10;99.90;;;;;;5050299;28;20056;-74
2023/09/13 02:48:10;;;;;;;9.85;1.80;;;17.10;99.90;;;;;;5050401;28;20045;-70
2023/09/13 02:50:40;;;;;;;11.65;1.77;;;17.00;99.90;;;;;;5050136;28;20175;-72
2023/09/13 02:53:06;;;;;;;8.50;1.67;;;17.00;99.90;;;;;;5049137;28;20131;-73
2023/09/13 02:55:32;;;;;;;5.95;1.55;;;17.00;99.90;;;;;;5048751;28;20112;-72
2023/09/13 02:57:57;;;;;;;8.73;1.77;;;17.00;99.90;;;;;;5050733;28;20135;-71
2023/09/13 03:00:23;;;;;;;9.18;1.48;;;17.00;99.90;;;;;;5049002;28;20072;-71
2023/09/13 03:02:49;;;;;;;6.03;1.38;;;17.00;99.90;;;;;;5048236;28;20496;-70
2023/09/13 03:05:15;;;;;;;9.60;2.60;;;17.00;99.90;;;;;;5050108;28;20519;-72
2023/09/13 03:07:42;;;;;;;8.75;1.58;;;17.00;99.90;;;;;;5049781;28;20045;-71
2023/09/13 03:10:08;;;;;;;6.72;1.70;;;17.00;99.90;;;;;;5049905;28;20118;-72
2023/09/13 03:12:34;;;;;;;12.25;1.90;;;17.00;99.90;;;;;;5045922;28;20045;-74
2023/09/13 03:14:59;;;;;;;5.03;1.52;;;17.00;99.90;;;;;;5050226;28;20087;-71
2023/09/13 03:17:25;;;;;;;9.27;1.50;;;16.90;99.90;;;;;;5049789;28;20048;-75
2023/09/13 03:19:51;;;;;;;10.80;1.80;;;17.00;99.90;;;;;;5048813;28;20376;-72
2023/09/13 03:22:18;;;;;;;7.47;1.75;;;17.00;99.90;;;;;;5049707;28;20041;-72
2023/09/13 03:24:44;;;;;;;6.63;1.35;;;17.00;99.90;;;;;;5041634;28;20481;-74
2023/09/13 03:27:10;;;;;;;9.45;1.75;;;17.00;99.90;;;;;;5048512;28;20060;-71
2023/09/13 03:29:36;;;;;;;8.32;1.70;;;17.00;99.90;;;;;;5050264;28;20047;-70
2023/09/13 03:32:02;;;;;;;7.63;1.85;;;17.00;99.90;;;;;;5049428;28;20033;-74
2023/09/13 03:34:27;;;;;;;8.85;1.50;;;17.00;99.90;;;;;;5048117;28;20045;-72
2023/09/13 03:36:54;;;;;;;12.82;1.90;;;17.10;99.90;;;;;;5049773;28;20045;-71
2023/09/13 03:39:20;;;;;;;9.77;1.67;;;17.00;99.90;;;;;;5049631;28;20380;-72
2023/09/13 03:41:46;;;;;;;10.60;2.10;;;17.00;99.90;;;;;;5058052;28;20048;-74
2023/09/13 03:44:11;;;;;;;11.98;1.85;;;16.90;99.90;;;;;;5049398;28;20084;-72
2023/09/13 03:46:37;;;;;;;6.65;1.65;;;16.90;99.90;;;;;;5047988;28;20052;-72
2023/09/13 03:49:03;;;;;;;9.57;1.60;;;16.90;99.90;;;;;;5049368;28;20037;-70
2023/09/13 03:51:29;;;;;;;14.00;1.55;;;16.90;99.90;;;;;;5049709;28;20049;-71
2023/09/13 03:53:57;;;;;;;10.30;1.58;;;16.90;99.90;;;;;;5049209;28;20052;-71
2023/09/13 03:56:23;;;;;;;10.38;1.60;;;16.80;99.90;;;;;;5049642;28;20037;-75
2023/09/13 03:58:49;;;;;;;11.27;2.05;;;16.80;99.90;;;;;;5049781;28;20052;-73
2023/09/13 04:01:14;;;;;;;9.70;1.85;;;16.70;99.90;;;;;;5049453;28;20227;-74
2023/09/13 04:03:40;;;;;;;10.32;1.75;;;16.70;99.90;;;;;;5049631;28;20745;-72
2023/09/13 04:06:06;;;;;;;11.80;1.70;;;16.70;99.90;;;;;;5048780;28;20076;-73
2023/09/13 04:08:31;;;;;;;12.85;1.60;;;16.60;99.90;;;;;;5052018;28;20126;-74
2023/09/13 04:10:57;;;;;;;10.48;1.85;;;16.50;99.90;;;;;;5052816;28;20056;-73
2023/09/13 04:13:23;;;;;;;8.00;1.63;;;16.50;99.90;;;;;;5063483;28;20050;-75
2023/09/13 04:15:48;;;;;;;7.68;1.75;;;16.40;99.90;;;;;;5052826;28;20132;-74
2023/09/13 04:18:14;;;;;;;7.20;1.67;;;16.30;99.90;;;;;;5051813;28;20127;-72
2023/09/13 04:20:43;;;;;;;9.20;1.90;;;16.30;99.90;;;;;;5051378;28;20388;-74
2023/09/13 04:23:09;;;;;;;10.50;2.22;;;16.30;99.90;;;;;;5052958;28;20487;-74
2023/09/13 04:25:36;;;;;;;6.40;1.60;;;16.20;99.90;;;;;;5051050;28;20135;-74
2023/09/13 04:28:01;;;;;;;9.68;1.77;;;16.20;99.90;;;;;;5051524;28;20057;-74
2023/09/13 04:30:27;;;;;;;7.30;2.15;;;16.20;99.90;;;;;;5052577;28;20053;-74
2023/09/13 04:32:52;;;;;;;7.93;1.55;;;16.10;99.90;;;;;;5052829;28;20068;-75
2023/09/13 04:35:18;;;;;;;8.70;1.70;;;16.10;99.90;;;;;;5051348;28;20053;-75
2023/09/13 04:37:44;;;;;;;7.75;1.55;;;16.00;99.90;;;;;;5052134;28;20099;-74
2023/09/13 04:40:10;;;;;;;8.23;1.80;;;16.00;99.90;;;;;;5050687;28;20067;-74
2023/09/13 04:42:50;;;;;;;8.68;1.70;;;16.00;99.90;;;;;;5050977;28;20044;-73
2023/09/13 04:45:16;;;;;;;9.40;1.88;;;16.00;99.90;;;;;;5045953;28;20155;-74
2023/09/13 04:47:41;;;;;;;6.10;1.80;;;16.00;99.90;;;;;;5052247;28;20067;-74
2023/09/13 04:50:08;;;;;;;9.80;1.63;;;16.00;99.90;;;;;;5067712;28;20057;-74
2023/09/13 04:52:34;;;;;;;5.95;1.75;;;15.90;99.90;;;;;;5051059;28;20060;-75
2023/09/13 04:54:59;;;;;;;10.55;2.53;;;15.80;99.90;;;;;;5050786;28;20045;-75
2023/09/13 04:57:25;;;;;;;9.65;1.80;;;15.80;99.90;;;;;;5051970;28;20475;-74
2023/09/13 04:59:52;;;;;;;6.18;1.65;;;15.80;99.90;;;;;;5052595;28;20052;-74
2023/09/13 05:02:17;;;;;;;11.20;2.28;;;15.70;99.90;;;;;;5052123;28;20048;-75
2023/09/13 05:04:43;;;;;;;11.40;2.40;;;15.60;99.90;;;;;;5050697;28;20047;-74
2023/09/13 05:07:09;;;;;;;8.55;2.05;;;15.60;99.90;;;;;;5051742;28;20052;-76
2023/09/13 05:09:37;;;;;;;11.35;2.00;;;15.50;99.90;;;;;;5052123;28;20037;-74
2023/09/13 05:12:03;;;;;;;9.48;2.17;;;15.50;99.90;;;;;;5051830;28;20044;-74
2023/09/13 05:14:29;;;;;;;9.35;2.00;;;15.50;99.90;;;;;;5051942;28;20672;-74
2023/09/13 05:16:54;;;;;;;7.72;1.70;;;15.50;99.90;;;;;;5050519;28;20048;-74
2023/09/13 05:19:20;;;;;;;8.50;1.98;;;15.40;99.90;;;;;;5050540;28;20048;-75
2023/09/13 05:21:46;;;;;;;9.02;2.10;;;15.40;99.90;;;;;;5051801;28;20400;-76
2023/09/13 05:24:12;;;;;;;10.88;3.03;;;15.40;99.90;;;;;;5051294;28;20045;-75
2023/09/13 05:26:38;;;;;;;10.82;2.20;;;15.40;99.90;;;;;;5051654;28;20049;-76
2023/09/13 05:29:03;;;;;;;10.27;2.33;;;15.30;99.90;;;;;;5044340;28;20041;-74
2023/09/13 05:31:29;;;;;;;7.93;2.13;;;15.30;99.90;;;;;;5052091;28;20135;-77
2023/09/13 05:33:55;;;;;;;10.45;2.22;;;15.30;99.90;;;;;;5050367;28;20037;-75
2023/09/13 05:36:20;;;;;;;8.85;1.88;;;15.30;99.90;;;;;;5051774;28;20045;-76
2023/09/13 05:38:49;;;;;;;9.27;1.98;;;15.20;99.90;;;;;;5050170;28;20040;-76
2023/09/13 05:41:15;;;;;;;7.97;2.08;;;15.20;99.90;;;;;;5050187;28;20051;-74
2023/09/13 05:43:42;;;;;;;9.68;2.00;;;15.20;99.90;;;;;;5058982;28;20514;-74
2023/09/13 05:46:08;;;;;;;7.70;1.98;;;15.10;99.90;;;;;;5051653;28;20040;-75
2023/09/13 05:48:34;;;;;;;9.43;2.05;;;15.10;99.90;;;;;;5049895;28;20426;-75
2023/09/13 05:51:00;;;;;;;6.68;1.80;;;15.20;99.90;;;;;;5049991;28;20045;-75
2023/09/13 05:53:26;;;;;;;10.90;2.47;;;15.10;99.90;;;;;;5049675;28;20049;-75
2023/09/13 05:55:51;;;;;;;10.32;2.08;;;15.10;99.90;;;;;;5066430;28;20051;-74
2023/09/13 05:58:17;;;;;;;12.07;2.33;;;15.00;99.90;;;;;;5050998;28;20125;-74
2023/09/13 06:00:49;;;;;;;8.80;1.98;;;15.00;99.90;;;;;;5050881;28;20106;-75
2023/09/13 06:03:19;;;;;;;9.15;2.30;;;15.00;99.90;;;;;;5050905;28;20051;-76
2023/09/13 06:05:48;;;;;;;9.40;2.20;;;15.00;99.90;;;;;;5050833;28;20088;-75
2023/09/13 06:08:14;;;;;;;13.43;2.45;;;15.00;99.90;;;;;;5050543;28;20065;-74
2023/09/13 06:10:39;;;;;;;9.35;2.20;;;15.00;99.90;;;;;;5050490;28;20055;-75
2023/09/13 06:13:05;;;;;;;11.45;2.70;;;15.00;99.90;;;;;;5049344;28;20040;-75
2023/09/13 06:15:30;;;;;;;17.77;3.13;;;15.00;99.90;;;;;;5050713;28;20083;-74
2023/09/13 06:17:56;;;;;;;15.50;2.92;;;15.00;99.90;;;;;;5050741;28;20487;-75
2023/09/13 06:20:22;;;;;;;13.25;2.67;;;15.00;99.90;;;;;;5050594;28;20044;-73
2023/09/13 06:22:47;;;;;;;14.02;3.05;;;15.00;99.90;;;;;;5050342;28;20163;-77
2023/09/13 06:25:16;;;;;;;13.13;2.83;;;15.00;99.90;;;;;;5048752;28;20099;-75
2023/09/13 06:27:43;;;;;;;13.85;3.10;;;15.00;99.90;;;;;;5066110;28;20123;-75
2023/09/13 06:30:09;;;;;;;11.57;2.80;;;15.00;99.90;;;;;;5048149;28;20045;-74
2023/09/13 06:32:34;;;;;;;14.80;3.35;;;14.90;99.90;;;;;;5049359;28;20514;-76
2023/09/13 06:35:00;;;;;;;15.82;3.15;;;14.90;99.90;;;;;;5050362;28;20055;-75
2023/09/13 06:37:26;;;;;;;16.85;3.22;;;14.90;99.90;;;;;;5049428;28;20073;-76
2023/09/13 06:39:55;;;;;;;17.38;3.60;;;14.90;99.90;;;;;;5048585;28;20640;-74
2023/09/13 06:42:20;;;;;;;15.65;3.17;;;14.90;99.90;;;;;;5047737;28;20037;-75
2023/09/13 06:44:46;;;;;;;17.90;3.08;;;14.90;99.90;;;;;;5050426;28;20052;-75
2023/09/13 06:47:12;;;;;;;16.50;3.20;;;14.90;99.90;;;;;;5050464;28;20446;-75
2023/09/13 06:49:37;;;;;;;17.60;3.10;;;14.80;99.90;;;;;;5049118;28;20504;-74
2023/09/13 06:52:03;;;;;;;16.90;3.08;;;14.90;99.90;;;;;;5049925;28;20127;-74
2023/09/13 06:54:29;;;;;;;19.65;3.30;;;14.90;99.90;;;;;;5050149;28;20423;-74
2023/09/13 06:56:54;;;;;;;14.45;3.30;;;14.90;99.90;;;;;;5065363;28;20395;-74
2023/09/13 06:59:20;;;;;;;14.85;3.05;;;15.00;99.90;;;;;;5050285;28;20044;-75
2023/09/13 07:01:46;;;;;;;11.65;2.70;;;15.00;99.90;;;;;;5049962;28;20044;-75
2023/09/13 07:04:13;;;;;;;13.27;2.70;;;15.00;99.90;;;;;;5050086;28;20079;-75
2023/09/13 07:06:39;;;;;;;14.38;3.08;;;15.10;99.90;;;;;;5050404;28;20110;-74
2023/09/13 07:09:05;;;;;;;12.40;2.67;;;15.10;99.90;;;;;;5050045;28;20438;-74
2023/09/13 07:11:30;;;;;;;13.27;3.08;;;15.20;99.90;;;;;;5049857;28;20049;-74
2023/09/13 07:13:57;;;;;;;15.00;2.58;;;15.20;99.90;;;;;;5049846;28;20029;-75
2023/09/13 07:16:22;;;;;;;11.35;2.33;;;15.30;99.90;;;;;;5049978;28;20088;-74
2023/09/13 07:18:48;;;;;;;11.48;2.17;;;15.20;99.90;;;;;;5049967;28;20072;-73
2023/09/13 07:21:14;;;;;;;12.32;2.15;;;15.20;99.90;;;;;;5065569;28;20061;-73
2023/09/13 07:23:39;;;;;;;13.35;2.40;;;15.30;99.90;;;;;;5049586;28;20048;-75
2023/09/13 07:26:05;;;;;;;7.78;1.60;;;15.30;99.90;;;;;;5031864;28;20084;-75
2023/09/13 07:28:31;;;;;;;12.75;2.72;;;15.20;99.90;;;;;;5057080;28;20045;-74
2023/09/13 07:30:57;;;;;;;12.13;2.25;;;15.30;99.90;;;;;;5049570;28;20037;-73
2023/09/13 07:33:22;;;;;;;11.02;2.13;;;15.30;99.90;;;;;;5049970;28;20075;-74
2023/09/13 07:35:48;;;;;;;8.48;1.92;;;15.30;99.90;;;;;;5050026;28;20045;-74
2023/09/13 07:38:14;;;;;;;10.40;2.28;;;15.30;99.90;;;;;;5048686;28;20053;-74
2023/09/13 07:40:40;;;;;;;7.38;1.95;;;15.30;99.90;;;;;;5049209;28;20041;-73
2023/09/13 07:43:08;;;;;;;11.60;2.33;;;15.30;99.90;;;;;;5049470;28;20068;-75
2023/09/13 07:45:34;;;;;;;11.52;2.10;;;15.30;99.90;;;;;;5052648;28;20068;-74
2023/09/13 07:48:02;;;;;;;7.78;1.70;;;15.20;99.90;;;;;;5053846;28;20040;-73
2023/09/13 07:50:33;;;;;;;9.65;2.05;;;15.20;99.90;;;;;;5053477;28;20045;-73
2023/09/13 07:52:59;;;;;;;10.95;1.88;;;15.20;99.90;;;;;;5052182;28;20048;-73
2023/09/13 07:55:26;;;;;;;11.48;2.33;;;15.20;99.90;;;;;;5053319;28;20340;-74
2023/09/13 07:57:52;;;;;;;9.57;3.03;;;15.30;99.90;;;;;;5058314;28;20048;-74
2023/09/13 08:00:18;;;;;;;10.57;1.90;;;15.30;99.90;;;;;;5053091;28;20025;-75
2023/09/13 08:02:44;;;;;;;7.97;2.22;;;15.30;99.90;;;;;;5053542;28;20510;-74
2023/09/13 08:05:10;;;;;;;12.07;2.58;;;15.30;99.90;;;;;;5052867;28;20059;-73
2023/09/13 08:07:36;;;;;;;10.93;2.40;;;15.30;99.90;;;;;;5053155;28;20053;-73
2023/09/13 08:10:03;;;;;;;11.90;1.95;;;15.40;99.90;;;;;;5053271;28;20056;-74
2023/09/13 08:12:30;;;;;;;12.35;2.88;;;15.50;99.90;;;;;;5043731;28;20113;-73
2023/09/13 08:14:55;;;;;;;16.13;2.13;;;15.50;99.90;;;;;;5052856;28;20049;-75
2023/09/13 08:17:21;;;;;;;9.57;2.00;;;15.50;99.90;;;;;;5053149;28;20051;-73
2023/09/13 08:19:47;;;;;;;6.78;1.80;;;15.60;99.90;;;;;;5052774;28;20095;-75
2023/09/13 08:22:15;;;;;;;8.80;1.85;;;15.70;99.90;;;;;;5053431;28;20460;-74
2023/09/13 08:24:41;;;;;;;9.88;2.08;;;15.80;99.90;;;;;;5044683;28;20087;-74
2023/09/13 08:27:07;;;;;;;10.55;2.22;;;15.90;99.90;;;;;;5052318;28;20072;-73
2023/09/13 08:29:34;;;;;;;10.55;2.17;;;16.20;99.90;;;;;;5054542;28;20091;-73
2023/09/13 08:32:00;;;;;;;9.65;2.35;;;16.40;99.90;;;;;;5052900;28;20041;-73
2023/09/13 08:34:26;;;;;;;6.65;1.70;;;16.50;99.90;;;;;;5052358;28;20048;-73
2023/09/13 08:36:55;;;;;;;13.23;2.05;;;16.70;99.90;;;;;;5051497;28;20110;-74
2023/09/13 08:39:22;;;;;;;8.55;2.33;;;16.70;99.90;;;;;;5054023;28;20064;-74
2023/09/13 08:41:51;;;;;;;7.25;2.22;;;16.80;99.90;;;;;;5053650;28;20044;-74
2023/09/13 08:44:21;;;;;;;11.43;2.22;;;16.80;99.90;;;;;;5052820;28;20037;-74
2023/09/13 08:46:50;;;;;;;10.68;2.20;;;16.80;99.90;;;;;;5052126;28;20612;-74
2023/09/13 08:49:16;;;;;;;11.82;1.95;;;16.90;99.90;;;;;;5052838;28;20041;-74
2023/09/13 08:51:44;;;;;;;9.63;2.78;;;17.00;99.90;;;;;;5052528;28;20045;-75
2023/09/13 08:54:11;;;;;;;8.13;2.10;;;17.00;99.90;;;;;;5043586;28;20047;-74
2023/09/13 08:56:38;;;;;;;8.82;1.83;;;17.00;99.90;;;;;;5052513;28;20435;-74
2023/09/13 08:59:04;;;;;;;10.05;2.00;;;17.00;99.90;;;;;;5052472;28;20130;-74
2023/09/13 09:01:31;;;;;;;13.40;2.38;;;17.10;99.90;;;;;;5052081;28;20051;-74
2023/09/13 09:03:57;;;;;;;10.07;2.28;;;17.30;99.90;;;;;;5050909;28;20132;-74
2023/09/13 09:06:24;;;;;;;7.15;1.55;;;17.40;99.90;;;;;;5052004;28;20167;-73
2023/09/13 09:08:50;;;;;;;9.75;2.03;;;17.40;99.90;;;;;;5068212;28;20060;-74
2023/09/13 09:11:18;;;;;;;12.63;2.20;;;17.40;99.90;;;;;;5053637;28;20196;-73
2023/09/13 09:13:45;;;;;;;9.98;2.00;;;17.40;99.90;;;;;;5051064;28;20033;-73
2023/09/13 09:16:13;;;;;;;8.93;1.85;;;17.40;99.90;;;;;;5051692;28;20149;-73
2023/09/13 09:18:39;;;;;;;10.85;2.20;;;17.40;99.90;;;;;;5044397;28;20120;-74
2023/09/13 09:21:06;;;;;;;11.27;2.35;;;17.30;99.90;;;;;;5050620;28;20055;-73
2023/09/13 09:23:34;;;;;;;11.05;2.72;;;17.30;99.90;;;;;;5052223;28;20075;-72
2023/09/13 09:26:03;;;;;;;17.45;2.95;;;17.30;99.90;;;;;;5048231;28;20457;-74
2023/09/13 09:28:29;;;;;;;13.52;2.80;;;17.20;99.90;;;;;;5050555;28;20519;-73
2023/09/13 09:30:54;;;;;;;13.40;2.40;;;17.10;99.90;;;;;;5051744;28;20041;-74
2023/09/13 09:33:30;;;;;;;8.30;2.42;;;17.10;99.90;;;;;;5051404;28;20076;-74
2023/09/13 09:35:57;;;;;;;8.27;2.40;;;17.10;99.90;;;;;;5044314;28;20041;-73
2023/09/13 09:38:24;;;;;;;8.45;2.47;;;17.00;99.90;;;;;;5051125;28;20099;-72
2023/09/13 09:40:50;;;;;;;10.48;2.80;;;16.90;99.90;;;;;;5051718;28;20056;-72
2023/09/13 09:43:16;;;;;;;12.02;2.80;;;16.80;99.90;;;;;;5051992;28;20072;-74
2023/09/13 09:45:42;;;;;;;10.13;2.42;;;16.70;99.90;;;;;;5051083;28;20459;-74
2023/09/13 09:48:08;;;;;;;12.73;2.55;;;16.80;99.90;;;;;;5066326;28;20053;-74
2023/09/13 09:50:34;;;;;;;9.50;2.20;;;16.70;99.90;;;;;;5051559;28;20128;-73
2023/09/13 09:53:08;;;;;;;11.85;3.10;;;16.80;99.90;;;;;;5051323;28;20120;-71
2023/09/13 09:55:38;;;;;;;8.40;2.30;;;16.80;99.90;;;;;;5050175;28;20071;-73
2023/09/13 09:58:04;;;;;;;13.15;3.20;;;16.80;99.90;;;;;;5051278;28;20037;-73
2023/09/13 10:00:29;;;;;;;10.40;2.80;;;17.00;99.90;;;;;;5051134;28;20040;-73
2023/09/13 10:02:55;;;;;;;7.68;2.58;;;17.00;99.90;;;;;;5049707;28;20051;-73
2023/09/13 10:05:21;;;;;;;9.05;2.65;;;17.00;99.90;;;;;;5049941;28;20044;-74
2023/09/13 10:07:57;;;;;;;8.98;2.45;;;17.10;99.90;;;;;;5050890;28;20507;-75
2023/09/13 10:10:34;;;;;;;8.80;1.98;;;17.20;99.90;;;;;;5049812;28;20083;-73
2023/09/13 10:13:00;;;;;;;10.15;2.97;;;17.30;99.90;;;;;;5051228;28;20036;-75
2023/09/13 10:15:26;;;;;;;8.27;2.22;;;17.50;99.90;;;;;;5051441;28;20041;-73
2023/09/13 10:17:54;;;;;;;9.05;2.63;;;17.80;99.90;;;;;;5050018;28;20045;-72
2023/09/13 10:20:23;;;;;;;7.20;2.85;;;18.20;99.90;;;;;;5048563;28;20045;-73
2023/09/13 10:22:49;;;;;;;5.07;2.28;;;18.50;99.90;;;;;;5050451;28;20484;-76
2023/09/13 10:25:18;;;;;;;5.68;2.20;;;18.70;99.90;;;;;;5050840;28;20049;-74
2023/09/13 10:27:48;;;;;;;8.07;2.22;;;18.90;99.90;;;;;;5049613;28;20083;-75
2023/09/13 10:30:23;;;;;;;7.40;2.10;;;19.20;99.90;;;;;;5050849;28;20037;-75
2023/09/13 10:32:53;;;;;;;7.03;2.22;;;19.40;99.90;;;;;;5048660;28;20090;-74
2023/09/13 10:35:19;;;;;;;5.85;2.20;;;19.60;99.90;;;;;;5052614;28;20074;-76
2023/09/13 10:38:07;;;;;;;6.70;2.40;;;19.80;99.90;;;;;;5051515;28;20190;-75
2023/09/13 10:40:33;;;;;;;8.85;2.40;;;19.80;99.90;;;;;;5050172;28;20041;-75
2023/09/13 10:43:00;;;;;;;5.30;2.30;;;19.90;99.90;;;;;;5050577;28;20048;-75
2023/09/13 10:45:27;;;;;;;6.47;2.60;;;20.20;99.90;;;;;;5049101;28;20056;-76
2023/09/13 10:47:54;;;;;;;7.65;2.47;;;20.30;99.90;;;;;;5050487;28;20037;-76
2023/09/13 10:50:21;;;;;;;7.75;2.80;;;20.40;99.90;;;;;;5049000;28;20053;-75
2023/09/13 10:52:49;;;;;;;7.75;2.50;;;20.50;99.90;;;;;;5049765;28;20573;-75
2023/09/13 10:55:15;;;;;;;6.45;3.22;;;20.80;99.90;;;;;;5050073;28;20613;-76
2023/09/13 10:57:42;;;;;;;6.00;2.55;;;20.70;99.90;;;;;;5050401;28;20053;-75
2023/09/13 11:00:12;;;;;;;7.07;2.28;;;20.70;99.90;;;;;;5049667;28;20163;-77
2023/09/13 11:02:43;;;;;;;5.60;2.08;;;20.60;99.90;;;;;;5047691;28;20488;-76
2023/09/13 11:05:13;;;;;;;8.73;2.60;;;20.60;99.90;;;;;;5065739;28;20044;-74
2023/09/13 11:07:41;;;;;;;4.63;1.95;;;20.70;99.90;;;;;;5049814;28;20053;-75
2023/09/13 11:10:16;;;;;;;6.13;1.92;;;21.00;99.90;;;;;;5049841;28;20416;-74
2023/09/13 11:12:48;;;;;;;6.32;1.70;;;20.80;99.90;;;;;;5049707;28;20053;-75
2023/09/13 11:15:24;;;;;;;5.30;1.63;;;21.00;99.90;;;;;;5052248;28;20171;-75
2023/09/13 11:18:12;;;;;;;7.45;2.08;;;21.20;99.90;;;;;;5049593;28;20036;-80
2023/09/13 11:20:39;;;;;;;6.97;1.70;;;21.30;99.90;;;;;;5042439;28;20094;-76
2023/09/13 11:23:21;;;;;;;7.88;2.00;;;21.20;99.90;;;;;;5049497;28;20049;-77
2023/09/13 11:25:50;;;;;;;8.52;1.92;;;21.10;99.90;;;;;;5042331;28;20120;-74
2023/09/13 11:28:34;;;;;;;7.28;1.70;;;21.20;99.90;;;;;;5048674;28;20044;-79
2023/09/13 11:31:02;;;;;;;6.82;2.03;;;21.10;99.90;;;;;;5059615;28;20056;-78
2023/09/13 11:33:28;;;;;;;5.65;1.30;;;21.00;99.90;;;;;;5049718;28;20120;-75
2023/09/13 11:35:58;;;;;;;6.63;1.42;;;20.80;99.90;;;;;;5064876;28;20036;-75
2023/09/13 11:38:26;;;;;;;5.90;1.50;;;21.00;99.90;;;;;;5048275;28;20048;-74
2023/09/13 11:40:56;;;;;;;8.50;2.00;;;21.00;99.90;;;;;;5049580;28;20041;-76
2023/09/13 11:43:26;;;;;;;7.85;1.50;;;21.30;99.90;;;;;;5050142;28;20098;-76
2023/09/13 11:45:55;;;;;;;4.75;1.15;;;21.40;99.90;;;;;;5048992;28;20120;-75
2023/09/13 11:48:39;;;;;;;7.68;1.42;;;21.30;99.90;;;;;;5053141;28;20074;-75
2023/09/13 11:51:16;;;;;;;7.53;1.27;;;21.10;99.90;;;;;;5041685;28;20045;-77
2023/09/13 11:53:42;;;;;;;4.45;1.25;;;21.10;99.90;;;;;;5045928;28;20052;-78
2023/09/13 11:56:32;;;;;;;5.40;1.33;;;21.00;99.90;;;;;;5040754;28;20132;-76
2023/09/13 11:59:01;;;;;;;4.18;1.20;;;20.80;99.90;;;;;;5049424;28;20041;-76
2023/09/13 12:01:29;;;;;;;11.98;1.58;;;20.70;99.90;;;;;;5048127;28;20045;-75
2023/09/13 12:04:03;;;;;;;4.75;1.30;;;20.60;99.90;;;;;;5049866;28;20064;-76
2023/09/13 12:06:29;;;;;;;5.65;1.20;;;20.50;99.90;;;;;;5049522;28;20048;-74
2023/09/13 12:08:55;;;;;;;10.52;1.50;;;20.30;99.90;;;;;;5048941;28;20085;-74
2023/09/13 12:11:22;;;;;;;7.82;1.42;;;20.20;99.90;;;;;;5049285;28;20049;-75
2023/09/13 12:13:49;;;;;;;4.95;1.27;;;20.10;99.90;;;;;;5049561;28;20391;-75
2023/09/13 12:16:17;;;;;;;7.55;1.40;;;19.90;99.90;;;;;;5047980;28;20057;-74
2023/09/13 12:18:43;;;;;;;8.65;1.83;;;19.90;99.90;;;;;;5049605;28;20049;-74
2023/09/13 12:21:10;;;;;;;7.53;1.42;;;19.70;99.90;;;;;;5049542;28;20148;-76
2023/09/13 12:23:41;;;;;;;4.53;1.23;;;19.70;99.90;;;;;;5041259;28;20432;-76
2023/09/13 12:26:11;;;;;;;5.05;1.30;;;19.80;99.90;;;;;;5049394;28;20519;-75
2023/09/13 12:28:39;;;;;;;4.53;1.50;;;19.80;99.90;;;;;;5049094;28;20099;-74
2023/09/13 12:31:10;;;;;;;8.15;1.30;;;19.80;99.90;;;;;;5053104;28;20045;-76
2023/09/13 12:33:37;;;;;;;10.20;1.90;;;19.90;99.90;;;;;;5051618;28;20488;-75
2023/09/13 12:36:04;;;;;;;10.52;2.08;;;20.30;99.90;;;;;;5052983;28;20044;-74
2023/09/13 12:38:43;;;;;;;9.93;1.40;;;20.50;99.90;;;;;;5051543;28;20088;-75
2023/09/13 12:41:10;;;;;;;11.43;2.17;;;20.30;99.90;;;;;;5052249;28;20128;-74
2023/09/13 12:43:36;;;;;;;10.50;1.73;;;20.10;99.90;;;;;;5052763;28;20041;-75